createdAt,value
2022-08-04T00:00:30.143Z,2.10
2022-08-04T00:03:16.750Z,2.13
2022-08-04T00:06:15.425Z,2.33
2022-08-04T00:08:50.389Z,2.60
2022-08-04T00:11:26.571Z,2.13
2022-08-04T00:14:10.246Z,1.47
2022-08-04T00:16:41.138Z,2.00
2022-08-04T00:19:29.945Z,1.90
2022-08-04T00:22:04.519Z,2.00
2022-08-04T00:24:34.025Z,1.70
2022-08-04T00:27:01.265Z,1.63
2022-08-04T00:29:28.343Z,1.67
2022-08-04T00:31:58.016Z,2.10
2022-08-04T00:34:28.419Z,2.10
2022-08-04T00:36:56.610Z,2.40
2022-08-04T00:39:24.880Z,2.30
2022-08-04T00:42:58.250Z,2.30
2022-08-04T00:46:15.077Z,2.10
2022-08-04T00:49:17.180Z,2.43
2022-08-04T00:52:32.425Z,1.70
2022-08-04T00:55:07.095Z,1.67
2022-08-04T00:58:27.674Z,1.67
2022-08-04T01:01:38.339Z,1.60
2022-08-04T01:04:36.316Z,1.80
2022-08-04T01:07:55.409Z,1.90
2022-08-04T01:10:50.985Z,2.10
2022-08-04T01:13:59.220Z,2.10
2022-08-04T01:16:27.588Z,2.43
2022-08-04T01:19:51.215Z,2.30
2022-08-04T01:22:35.087Z,2.00
2022-08-04T01:25:57.267Z,2.10
2022-08-04T01:28:38.939Z,1.90
2022-08-04T01:31:30.348Z,1.77
2022-08-04T01:34:04.517Z,2.00
2022-08-04T01:36:35.848Z,2.37
2022-08-04T01:39:22.559Z,2.57
2022-08-04T01:41:57.676Z,2.23
2022-08-04T01:44:32.697Z,2.17
2022-08-04T01:47:02.179Z,2.77
2022-08-04T01:49:40.210Z,2.50
2022-08-04T01:52:10.297Z,2.20
2022-08-04T01:54:42.745Z,2.17
2022-08-04T01:57:38.347Z,2.40
2022-08-04T02:00:06.597Z,2.10
2022-08-04T02:02:36.019Z,1.97
2022-08-04T02:05:03.312Z,2.30
2022-08-04T02:07:40.894Z,2.23
2022-08-04T02:10:23.351Z,2.33
2022-08-04T02:13:19.088Z,1.80
2022-08-04T02:15:58.945Z,2.13
2022-08-04T02:18:37.924Z,1.70
2022-08-04T02:21:05.915Z,2.00
2022-08-04T02:23:41.696Z,2.37
2022-08-04T02:26:24.589Z,1.90
2022-08-04T02:29:32.216Z,2.10
2022-08-04T02:32:14.083Z,1.87
2022-08-04T02:34:54.522Z,2.97
2022-08-04T02:37:24.239Z,2.50
2022-08-04T02:39:54.306Z,2.33
2022-08-04T02:42:22.007Z,2.60
2022-08-04T02:44:52.563Z,2.97
2022-08-04T02:48:29.207Z,2.60
2022-08-04T02:50:15.141Z,2.00
2022-08-04T02:53:00.635Z,2.17
2022-08-04T02:55:30.430Z,2.00
2022-08-04T02:58:04.276Z,3.00
2022-08-04T03:00:31.988Z,2.57
2022-08-04T03:03:26.050Z,2.57
2022-08-04T03:06:32.848Z,2.87
2022-08-04T03:09:46.652Z,2.40
2022-08-04T03:13:03.826Z,2.77
2022-08-04T03:16:04.879Z,2.20
2022-08-04T03:19:26.447Z,2.27
2022-08-04T03:22:22.855Z,2.70
2022-08-04T03:25:27.197Z,2.60
2022-08-04T03:28:46.679Z,2.13
2022-08-04T03:32:15.165Z,2.10
2022-08-04T03:35:37.484Z,2.50
2022-08-04T03:38:29.205Z,2.70
2022-08-04T03:41:51.930Z,2.13
2022-08-04T03:44:44.047Z,2.90
2022-08-04T03:47:43.567Z,2.60
2022-08-04T03:50:41.402Z,2.27
2022-08-04T03:53:42.371Z,2.20
2022-08-04T03:56:40.284Z,2.57
2022-08-04T03:59:36.740Z,2.20
2022-08-04T04:02:55.010Z,2.90
2022-08-04T04:06:02.392Z,2.70
2022-08-04T04:09:16.304Z,4.67
2022-08-04T04:12:36.833Z,3.10
2022-08-04T04:15:48.249Z,3.00
2022-08-04T04:18:27.289Z,2.97
2022-08-04T04:21:22.308Z,2.47
2022-08-04T04:24:45.914Z,2.93
2022-08-04T04:27:47.689Z,3.00
2022-08-04T04:30:40.762Z,2.70
2022-08-04T04:33:32.624Z,3.43
2022-08-04T04:36:43.281Z,2.80
2022-08-04T04:39:36.737Z,3.17
2022-08-04T04:42:31.931Z,2.90
2022-08-04T04:45:17.854Z,2.87
2022-08-04T04:48:27.770Z,2.70
2022-08-04T04:51:16.499Z,3.67
2022-08-04T04:54:13.832Z,3.33
2022-08-04T04:57:03.498Z,4.20
2022-08-04T04:59:36.381Z,4.80
2022-08-04T05:03:06.038Z,5.57
2022-08-04T05:06:15.320Z,4.80
2022-08-04T05:09:29.104Z,4.57
2022-08-04T05:14:26.352Z,5.20
2022-08-04T05:15:11.175Z,4.83
2022-08-04T05:17:43.008Z,4.30
2022-08-04T05:20:27.762Z,4.50
2022-08-04T05:23:02.046Z,4.60
2022-08-04T05:25:55.302Z,4.40
2022-08-04T05:28:54.860Z,4.33
2022-08-04T05:31:29.206Z,5.10
2022-08-04T05:34:05.577Z,4.90
2022-08-04T05:36:47.495Z,4.33
2022-08-04T05:39:25.367Z,4.23
2022-08-04T05:41:55.359Z,3.70
2022-08-04T05:44:28.279Z,4.40
2022-08-04T05:46:58.519Z,4.00
2022-08-04T05:49:28.693Z,4.10
2022-08-04T05:52:01.106Z,4.63
2022-08-04T05:54:32.043Z,5.03
2022-08-04T05:57:00.374Z,4.43
2022-08-04T05:59:29.813Z,4.50
2022-08-04T06:02:00.876Z,4.50
2022-08-04T06:04:39.872Z,3.90
2022-08-04T06:07:08.258Z,3.77
2022-08-04T06:09:35.193Z,4.13
2022-08-04T06:12:18.018Z,3.97
2022-08-04T06:14:49.016Z,3.90
2022-08-04T06:19:40.116Z,3.73
2022-08-04T06:20:23.231Z,4.13
2022-08-04T06:22:56.174Z,4.27
2022-08-04T06:25:31.163Z,4.60
2022-08-04T06:28:00.761Z,4.67
2022-08-04T06:30:32.203Z,4.83
2022-08-04T06:33:05.236Z,5.07
2022-08-04T06:35:34.908Z,4.97
2022-08-04T06:38:03.330Z,4.67
2022-08-04T06:40:34.050Z,4.20
2022-08-04T06:43:07.881Z,4.10
2022-08-04T06:45:39.800Z,4.45
2022-08-04T06:48:08.901Z,4.47
2022-08-04T06:51:24.985Z,3.88
2022-08-04T06:53:27.022Z,4.43
2022-08-04T06:55:56.235Z,3.58
2022-08-04T06:58:25.359Z,4.13
2022-08-04T07:00:55.699Z,3.58
2022-08-04T07:03:23.301Z,3.80
2022-08-04T07:05:52.205Z,3.65
2022-08-04T07:08:20.735Z,3.38
2022-08-04T07:10:49.156Z,3.85
2022-08-04T07:13:18.045Z,3.67
2022-08-04T07:15:47.392Z,3.45
2022-08-04T07:18:14.612Z,3.90
2022-08-04T07:20:46.366Z,2.92
2022-08-04T07:23:19.785Z,3.45
2022-08-04T07:25:59.738Z,3.85
2022-08-04T07:28:41.324Z,3.33
2022-08-04T07:31:31.858Z,3.95
2022-08-04T07:34:21.450Z,3.67
2022-08-04T07:36:52.933Z,3.28
2022-08-04T07:39:28.427Z,3.28
2022-08-04T07:42:01.649Z,3.40
2022-08-04T07:44:34.449Z,2.70
2022-08-04T07:47:04.154Z,2.80
2022-08-04T07:49:52.185Z,2.67
2022-08-04T07:52:18.923Z,2.50
2022-08-04T07:54:47.407Z,2.75
2022-08-04T07:57:19.582Z,2.47
2022-08-04T07:59:50.378Z,2.25
2022-08-04T08:02:21.845Z,2.67
2022-08-04T08:04:50.052Z,2.30
2022-08-04T08:07:20.457Z,1.80
2022-08-04T08:09:48.024Z,1.90
2022-08-04T08:12:38.401Z,1.70
2022-08-04T08:15:04.640Z,2.00
2022-08-04T08:17:31.634Z,1.42
2022-08-04T08:20:29.451Z,1.73
2022-08-04T08:23:00.853Z,1.77
2022-08-04T08:25:27.967Z,1.70
2022-08-04T08:27:56.052Z,1.60
2022-08-04T08:30:31.686Z,1.88
2022-08-04T08:33:07.953Z,1.73
2022-08-04T08:35:55.020Z,1.50
2022-08-04T08:38:38.692Z,1.50
2022-08-04T08:42:06.329Z,1.42
2022-08-04T08:45:09.502Z,1.17
2022-08-04T08:48:06.210Z,1.58
2022-08-04T08:51:11.444Z,1.15
2022-08-04T08:54:22.700Z,1.70
2022-08-04T08:57:13.819Z,1.60
2022-08-04T09:00:21.703Z,1.17
2022-08-04T09:03:24.712Z,1.33
2022-08-04T09:06:16.321Z,1.38
2022-08-04T09:09:23.475Z,1.50
2022-08-04T09:12:12.996Z,1.08
2022-08-04T09:14:54.313Z,1.52
2022-08-04T09:17:29.995Z,1.45
2022-08-04T09:20:06.124Z,1.58
2022-08-04T09:22:59.977Z,1.38
2022-08-04T09:25:38.712Z,1.20
2022-08-04T09:28:37.193Z,1.45
2022-08-04T09:31:17.029Z,1.10
2022-08-04T09:34:09.990Z,1.50
2022-08-04T09:37:17.368Z,0.95
2022-08-04T09:40:03.926Z,1.10
2022-08-04T09:42:54.703Z,1.00
2022-08-04T09:45:46.907Z,1.20
2022-08-04T09:48:58.963Z,1.10
2022-08-04T09:51:58.719Z,1.33
2022-08-04T09:54:43.825Z,1.10
2022-08-04T09:57:36.612Z,1.05
2022-08-04T10:00:16.819Z,1.30
2022-08-04T10:03:00.966Z,1.40
2022-08-04T10:06:15.165Z,1.20
2022-08-04T10:09:27.383Z,1.20
2022-08-04T10:12:22.897Z,1.10
2022-08-04T10:15:17.204Z,1.15
2022-08-04T10:18:17.097Z,0.90
2022-08-04T10:21:19.531Z,1.23
2022-08-04T10:24:15.524Z,1.10
2022-08-04T10:27:02.940Z,1.52
2022-08-04T10:29:47.993Z,1.13
2022-08-04T10:32:43.120Z,1.00
2022-08-04T10:35:18.451Z,1.00
2022-08-04T10:38:26.780Z,1.10
2022-08-04T10:41:06.393Z,1.00
2022-08-04T10:43:36.321Z,0.70
2022-08-04T10:46:17.157Z,0.95
2022-08-04T10:49:14.653Z,1.08
2022-08-04T10:52:22.188Z,1.15
2022-08-04T10:55:08.349Z,0.82
2022-08-04T10:57:52.524Z,1.30
2022-08-04T11:00:26.544Z,1.00
2022-08-04T11:03:38.846Z,1.00
2022-08-04T11:06:06.747Z,1.30
2022-08-04T11:08:47.624Z,1.33
2022-08-04T11:12:01.060Z,1.40
2022-08-04T11:14:36.192Z,1.13
2022-08-04T11:17:38.170Z,1.13
2022-08-04T11:23:17.216Z,1.13
2022-08-04T11:26:02.580Z,1.48
2022-08-04T11:29:04.134Z,0.70
2022-08-04T11:31:36.049Z,1.08
2022-08-04T11:34:23.542Z,1.10
2022-08-04T11:37:03.053Z,1.02
2022-08-04T11:39:37.287Z,0.82
2022-08-04T11:42:34.072Z,0.93
2022-08-04T11:45:24.466Z,1.17
2022-08-04T11:48:05.340Z,1.08
2022-08-04T11:50:41.416Z,0.95
2022-08-04T11:53:19.257Z,0.93
2022-08-04T11:56:08.341Z,0.80
2022-08-04T11:58:38.188Z,0.85
2022-08-04T12:01:30.052Z,1.27
2022-08-04T12:04:37.735Z,1.17
2022-08-04T12:07:30.473Z,1.05
2022-08-04T12:10:42.166Z,0.77
2022-08-04T12:13:35.179Z,1.00
2022-08-04T12:16:07.844Z,1.17
2022-08-04T12:18:52.628Z,1.20
2022-08-04T12:21:39.295Z,0.95
2022-08-04T12:24:31.029Z,0.90
2022-08-04T12:27:07.034Z,0.82
2022-08-04T12:29:37.022Z,1.08
2022-08-04T12:32:19.946Z,1.00
2022-08-04T12:35:03.090Z,1.00
2022-08-04T12:37:49.410Z,1.10
2022-08-04T12:40:30.108Z,0.98
2022-08-04T12:43:27.361Z,0.85
2022-08-04T12:45:59.690Z,1.08
2022-08-04T12:48:28.324Z,1.75
2022-08-04T12:50:58.650Z,1.00
2022-08-04T12:53:51.217Z,1.08
2022-08-04T12:56:27.919Z,1.08
2022-08-04T12:59:06.171Z,0.82
2022-08-04T13:02:10.270Z,0.80
2022-08-04T13:04:42.642Z,1.00
2022-08-04T13:07:21.135Z,1.40
2022-08-04T13:09:49.595Z,1.08
2022-08-04T13:12:32.254Z,1.00
2022-08-04T13:15:17.966Z,1.10
2022-08-04T13:17:57.359Z,1.20
2022-08-04T13:20:40.097Z,1.20
2022-08-04T13:23:21.964Z,1.20
2022-08-04T13:28:44.959Z,1.50
2022-08-04T13:30:24.379Z,1.25
2022-08-04T13:31:20.680Z,1.30
2022-08-04T13:33:51.563Z,1.20
2022-08-04T13:36:25.674Z,1.15
2022-08-04T13:38:58.576Z,1.35
2022-08-04T13:41:31.220Z,1.20
2022-08-04T13:44:19.219Z,1.02
2022-08-04T13:47:03.352Z,1.10
2022-08-04T13:49:43.003Z,1.17
2022-08-04T13:52:18.142Z,1.30
2022-08-04T13:54:48.454Z,1.00
2022-08-04T13:57:31.540Z,2.30
2022-08-04T14:00:05.721Z,1.75
2022-08-04T14:02:50.249Z,1.10
2022-08-04T14:05:28.727Z,1.67
2022-08-04T14:08:36.571Z,1.20
2022-08-04T14:11:05.483Z,1.20
2022-08-04T14:13:40.958Z,1.80
2022-08-04T14:16:22.038Z,1.20
2022-08-04T14:19:00.838Z,1.20
2022-08-04T14:21:28.321Z,1.15
2022-08-04T14:23:57.282Z,1.30
2022-08-04T14:26:35.440Z,1.00
2022-08-04T14:29:26.402Z,6.60
2022-08-04T14:32:10.537Z,2.35
2022-08-04T14:34:41.613Z,1.70
2022-08-04T14:37:19.327Z,1.42
2022-08-04T14:40:17.953Z,1.17
2022-08-04T14:42:54.533Z,1.58
2022-08-04T14:45:34.310Z,1.30
2022-08-04T14:48:11.952Z,1.35
2022-08-04T14:50:48.427Z,1.52
2022-08-04T14:53:26.754Z,1.25
2022-08-04T14:55:57.562Z,1.20
2022-08-04T14:58:39.472Z,1.42
2022-08-04T15:01:12.130Z,1.35
2022-08-04T15:03:50.402Z,1.40
2022-08-04T15:06:26.226Z,1.40
2022-08-04T15:08:57.450Z,1.50
2022-08-04T15:11:25.803Z,1.70
2022-08-04T15:13:53.572Z,1.75
2022-08-04T15:16:22.688Z,1.67
2022-08-04T15:18:54.471Z,1.70
2022-08-04T15:21:24.139Z,2.22
2022-08-04T15:23:51.762Z,2.30
2022-08-04T15:26:28.163Z,1.83
2022-08-04T15:29:02.539Z,1.73
2022-08-04T15:32:07.087Z,1.63
2022-08-04T15:34:23.743Z,1.95
2022-08-04T15:36:57.237Z,2.88
2022-08-04T15:39:35.968Z,1.88
2022-08-04T15:42:45.971Z,1.80
2022-08-04T15:46:04.262Z,1.83
2022-08-04T15:48:13.221Z,1.38
2022-08-04T15:50:58.443Z,1.60
2022-08-04T15:54:02.345Z,1.88
2022-08-04T15:56:23.748Z,1.60
2022-08-04T15:58:55.080Z,2.05
2022-08-04T16:01:23.267Z,2.13
2022-08-04T16:04:01.157Z,2.67
2022-08-04T16:06:29.410Z,1.85
2022-08-04T16:09:03.056Z,2.28
2022-08-04T16:11:32.210Z,1.80
2022-08-04T16:13:59.451Z,1.65
2022-08-04T16:16:36.514Z,2.30
2022-08-04T16:19:10.008Z,2.00
2022-08-04T16:22:00.332Z,1.80
2022-08-04T16:24:38.314Z,1.70
2022-08-04T16:27:14.241Z,2.22
2022-08-04T16:29:49.198Z,1.60
2022-08-04T16:32:23.174Z,4.13
2022-08-04T16:34:54.615Z,2.50
2022-08-04T16:37:35.571Z,1.83
2022-08-04T16:40:39.708Z,2.97
2022-08-04T16:43:14.135Z,2.80
2022-08-04T16:45:51.611Z,3.20
2022-08-04T16:48:38.943Z,1.88
2022-08-04T16:51:15.406Z,1.92
2022-08-04T16:53:52.848Z,1.90
2022-08-04T16:56:30.500Z,2.72
2022-08-04T16:59:08.268Z,2.50
2022-08-04T17:01:36.362Z,3.40
2022-08-04T17:04:05.845Z,2.83
2022-08-04T17:06:40.480Z,2.03
2022-08-04T17:09:16.255Z,1.70
2022-08-04T17:11:45.887Z,1.80
2022-08-04T17:14:21.086Z,2.70
2022-08-04T17:16:48.354Z,1.60
2022-08-04T17:19:24.140Z,2.05
2022-08-04T17:22:05.857Z,1.70
2022-08-04T17:24:38.141Z,1.50
2022-08-04T17:29:53.646Z,1.80
2022-08-04T17:32:22.867Z,1.48
2022-08-04T17:35:03.864Z,1.95
2022-08-04T17:37:40.181Z,1.30
2022-08-04T17:44:04.881Z,1.40
2022-08-04T17:46:33.993Z,1.58
2022-08-04T17:49:22.132Z,2.50
2022-08-04T17:52:06.072Z,1.65
2022-08-04T17:54:40.339Z,1.58
2022-08-04T17:57:19.973Z,1.42
2022-08-04T17:59:57.601Z,1.52
2022-08-04T18:05:50.211Z,2.28
2022-08-04T18:08:41.415Z,1.80
2022-08-04T18:11:03.806Z,1.80
2022-08-04T18:13:42.563Z,1.40
2022-08-04T18:16:22.421Z,1.58
2022-08-04T18:19:14.538Z,1.80
2022-08-04T18:21:46.834Z,1.70
2022-08-04T18:24:35.131Z,1.50
2022-08-04T18:27:19.711Z,1.77
2022-08-04T18:29:56.472Z,1.33
2022-08-04T18:32:36.352Z,1.88
2022-08-04T18:35:07.084Z,2.03
2022-08-04T18:38:05.262Z,1.80
2022-08-04T18:40:34.352Z,1.55
2022-08-04T18:43:06.104Z,1.55
2022-08-04T18:45:34.448Z,1.95
2022-08-04T18:48:04.093Z,1.75
2022-08-04T18:51:10.505Z,1.80
2022-08-04T18:53:23.372Z,1.60
2022-08-04T18:55:57.270Z,1.75
2022-08-04T18:58:27.216Z,1.70
2022-08-04T19:00:56.215Z,1.63
2022-08-04T19:03:33.261Z,1.60
2022-08-04T19:06:02.896Z,1.45
2022-08-04T19:08:33.371Z,1.85
2022-08-04T19:11:37.315Z,1.60
2022-08-04T19:13:54.837Z,1.90
2022-08-04T19:16:31.391Z,2.47
2022-08-04T19:19:00.627Z,1.55
2022-08-04T19:22:00.952Z,1.77
2022-08-04T19:24:32.156Z,1.80
2022-08-04T19:27:06.827Z,1.85
2022-08-04T19:29:40.842Z,1.80
2022-08-04T19:32:14.700Z,1.70
2022-08-04T19:34:47.099Z,1.73
2022-08-04T19:37:56.856Z,1.85
2022-08-04T19:40:08.185Z,2.38
2022-08-04T19:42:36.957Z,2.75
2022-08-04T19:45:05.492Z,2.38
2022-08-04T19:48:16.338Z,2.65
2022-08-04T19:50:19.835Z,2.13
2022-08-04T19:52:52.566Z,2.50
2022-08-04T19:55:37.380Z,2.55
2022-08-04T19:58:08.898Z,2.53
2022-08-04T20:00:39.020Z,2.95
2022-08-04T20:03:11.359Z,2.55
2022-08-04T20:05:53.588Z,2.38
2022-08-04T20:08:26.511Z,2.22
2022-08-04T20:10:55.222Z,2.45
2022-08-04T20:13:25.304Z,2.13
2022-08-04T20:15:58.847Z,2.10
2022-08-04T20:18:35.975Z,1.88
2022-08-04T20:24:38.988Z,2.25
2022-08-04T20:26:51.512Z,1.92
2022-08-04T20:29:36.939Z,2.08
2022-08-04T20:32:09.490Z,2.88
2022-08-04T20:34:38.177Z,3.20
2022-08-04T20:37:10.164Z,3.15
2022-08-04T20:39:37.677Z,2.95
2022-08-04T20:42:05.043Z,2.80
2022-08-04T20:44:33.716Z,2.80
2022-08-04T20:47:01.555Z,3.05
2022-08-04T20:49:35.017Z,2.72
2022-08-04T20:52:13.219Z,2.53
2022-08-04T20:54:48.609Z,2.65
2022-08-04T20:57:16.654Z,2.97
2022-08-04T20:59:50.322Z,3.00
2022-08-04T21:02:27.908Z,3.55
2022-08-04T21:04:55.985Z,3.10
2022-08-04T21:07:24.832Z,2.90
2022-08-04T21:09:52.525Z,2.50
2022-08-04T21:12:28.347Z,2.92
2022-08-04T21:15:00.080Z,2.85
2022-08-04T21:17:58.589Z,2.78
2022-08-04T21:20:16.878Z,2.83
2022-08-04T21:22:54.620Z,3.42
2022-08-04T21:25:22.189Z,2.60
2022-08-04T21:27:49.726Z,3.00
2022-08-04T21:30:25.374Z,3.40
2022-08-04T21:32:55.326Z,2.78
2022-08-04T21:35:36.648Z,3.17
2022-08-04T21:38:04.367Z,2.50
2022-08-04T21:41:01.763Z,2.97
2022-08-04T21:43:42.328Z,4.70
2022-08-04T21:46:10.333Z,3.47
2022-08-04T21:48:39.126Z,3.75
2022-08-04T21:51:59.400Z,3.20
2022-08-04T21:54:17.397Z,3.00
2022-08-04T21:56:50.743Z,2.75
2022-08-04T21:59:28.592Z,3.20
2022-08-04T22:02:00.473Z,2.80
2022-08-04T22:04:28.903Z,3.50
2022-08-04T22:06:56.054Z,3.90
2022-08-04T22:09:23.005Z,3.20
2022-08-04T22:11:51.795Z,2.88
2022-08-04T22:14:27.480Z,3.95
2022-08-04T22:17:02.658Z,3.80
2022-08-04T22:19:50.027Z,3.38
2022-08-04T22:22:25.289Z,2.70
2022-08-04T22:28:00.894Z,3.47
2022-08-04T22:30:36.476Z,3.10
2022-08-04T22:33:08.327Z,3.30
2022-08-04T22:35:49.519Z,3.22
2022-08-04T22:38:24.365Z,3.50
2022-08-04T22:41:06.144Z,3.42
2022-08-04T22:43:34.845Z,4.27
2022-08-04T22:46:12.228Z,3.60
2022-08-04T22:48:43.338Z,2.70
2022-08-04T22:51:13.032Z,2.95
2022-08-04T22:53:40.798Z,3.30
2022-08-04T22:56:10.719Z,4.07
2022-08-04T22:58:50.946Z,2.92
2022-08-04T23:01:19.136Z,2.58
2022-08-04T23:03:50.925Z,3.22
2022-08-04T23:06:28.489Z,3.75
2022-08-04T23:08:56.818Z,4.53
2022-08-04T23:11:34.358Z,3.25
2022-08-04T23:14:02.875Z,3.92
2022-08-04T23:16:30.097Z,3.55
2022-08-04T23:18:56.965Z,3.70
2022-08-04T23:21:24.386Z,3.20
2022-08-04T23:24:02.153Z,3.45
2022-08-04T23:26:31.554Z,3.10
2022-08-04T23:28:58.909Z,3.33
2022-08-04T23:31:38.914Z,3.65
2022-08-04T23:34:08.647Z,2.83
2022-08-04T23:36:38.599Z,2.15
2022-08-04T23:39:06.411Z,2.50
2022-08-04T23:41:54.015Z,2.92
2022-08-04T23:44:26.903Z,2.60
2022-08-04T23:47:03.571Z,3.90
2022-08-04T23:49:42.255Z,4.10
2022-08-04T23:52:27.699Z,3.13
2022-08-04T23:54:59.204Z,3.95
2022-08-04T23:57:31.681Z,4.57
